createdAt,value
2022-12-24T00:01:33.437Z,98871.25
2022-12-24T00:03:59.764Z,98866.94
2022-12-24T00:06:26.149Z,98857.63
2022-12-24T00:08:52.720Z,98864.97
2022-12-24T00:11:19.788Z,98864.16
2022-12-24T00:13:46.848Z,98864.56
2022-12-24T00:16:13.300Z,98869.53
2022-12-24T00:18:45.495Z,98883.59
2022-12-24T00:21:12.480Z,98875.41
2022-12-24T00:23:39.922Z,98884.72
2022-12-24T00:26:06.230Z,98888.16
2022-12-24T00:28:32.575Z,98889.13
2022-12-24T00:30:59.054Z,98895.69
2022-12-24T00:33:25.418Z,98902.78
2022-12-24T00:35:52.915Z,98913.75
2022-12-24T00:38:19.361Z,98907.63
2022-12-24T00:40:45.721Z,98904.97
2022-12-24T00:43:12.100Z,98905.69
2022-12-24T00:45:38.421Z,98906.78
2022-12-24T00:48:04.895Z,98904.97
2022-12-24T00:50:31.195Z,98903.31
2022-12-24T00:52:57.532Z,98894.97
2022-12-24T00:55:23.883Z,98894.00
2022-12-24T00:57:50.164Z,98895.94
2022-12-24T01:00:17.784Z,98903.41
2022-12-24T01:02:44.463Z,98905.09
2022-12-24T01:05:11.630Z,98899.09
2022-12-24T01:07:40.735Z,98908.84
2022-12-24T01:10:07.993Z,98901.84
2022-12-24T01:12:34.733Z,98902.00
2022-12-24T01:15:01.038Z,98899.47
2022-12-24T01:17:27.336Z,98913.81
2022-12-24T01:19:53.634Z,98910.31
2022-12-24T01:22:19.983Z,98911.00
2022-12-24T01:24:46.484Z,98925.59
2022-12-24T01:27:12.807Z,98924.63
2022-12-24T01:29:39.093Z,98928.38
2022-12-24T01:32:05.431Z,98932.25
2022-12-24T01:34:32.016Z,98931.72
2022-12-24T01:36:58.346Z,98926.44
2022-12-24T01:39:24.684Z,98918.91
2022-12-24T01:42:09.513Z,98927.53
2022-12-24T01:44:40.937Z,98940.72
2022-12-24T01:47:21.816Z,98938.47
2022-12-24T01:50:10.748Z,98946.16
2022-12-24T01:52:37.586Z,98951.16
2022-12-24T01:55:12.474Z,98960.16
2022-12-24T01:57:48.078Z,98957.09
2022-12-24T02:00:16.117Z,98942.94
2022-12-24T02:02:46.275Z,98959.34
2022-12-24T02:05:18.678Z,98962.09
2022-12-24T02:07:46.438Z,98959.59
2022-12-24T02:10:13.913Z,98960.69
2022-12-24T02:12:42.073Z,98945.78
2022-12-24T02:15:11.765Z,98956.81
2022-12-24T02:18:21.279Z,98960.31
2022-12-24T02:21:18.805Z,98951.13
2022-12-24T02:24:07.632Z,98958.78
2022-12-24T02:27:00.505Z,98955.69
2022-12-24T02:29:51.276Z,98958.06
2022-12-24T02:32:25.128Z,98970.69
2022-12-24T02:34:58.592Z,98970.41
2022-12-24T02:37:31.198Z,98982.22
2022-12-24T02:40:03.833Z,98987.34
2022-12-24T02:42:38.283Z,98983.88
2022-12-24T02:45:13.368Z,98984.31
2022-12-24T02:47:41.688Z,98986.63
2022-12-24T02:50:10.235Z,98988.88
2022-12-24T02:52:40.315Z,98992.09
2022-12-24T02:55:16.422Z,98994.03
2022-12-24T02:58:13.478Z,98995.91
2022-12-24T03:01:16.173Z,99018.84
2022-12-24T03:04:16.394Z,99017.31
2022-12-24T03:06:48.529Z,99022.84
2022-12-24T03:09:26.690Z,99022.34
2022-12-24T03:12:05.403Z,99022.34
2022-12-24T03:14:34.612Z,99037.31
2022-12-24T03:17:03.337Z,99028.59
2022-12-24T03:19:30.903Z,99019.16
2022-12-24T03:22:00.055Z,99031.22
2022-12-24T03:24:26.563Z,99034.25
2022-12-24T03:26:52.954Z,99013.53
2022-12-24T03:29:20.187Z,99034.84
2022-12-24T03:31:52.156Z,99047.31
2022-12-24T03:34:19.210Z,99049.69
2022-12-24T03:36:47.310Z,99054.00
2022-12-24T03:39:13.625Z,99054.00
2022-12-24T03:41:40.026Z,99047.31
2022-12-24T03:44:06.445Z,99052.34
2022-12-24T03:46:32.860Z,99064.00
2022-12-24T03:48:59.251Z,99054.97
2022-12-24T03:51:25.915Z,99055.13
2022-12-24T03:53:53.385Z,99062.03
2022-12-24T03:56:20.538Z,99069.00
2022-12-24T03:58:47.097Z,99067.91
2022-12-24T04:01:13.470Z,99068.88
2022-12-24T04:03:39.977Z,99085.16
2022-12-24T04:06:10.064Z,99080.25
2022-12-24T04:08:37.111Z,99087.84
2022-12-24T04:11:10.289Z,99092.75
2022-12-24T04:13:36.908Z,99088.81
2022-12-24T04:16:09.646Z,99093.38
2022-12-24T04:18:36.493Z,99093.66
2022-12-24T04:21:02.976Z,99081.19
2022-12-24T04:23:35.191Z,99099.38
2022-12-24T04:26:02.834Z,99103.09
2022-12-24T04:28:30.639Z,99100.31
2022-12-24T04:31:01.399Z,99097.69
2022-12-24T04:33:28.552Z,99103.25
2022-12-24T04:35:57.226Z,99106.31
2022-12-24T04:38:23.686Z,99103.25
2022-12-24T04:40:59.187Z,99105.13
2022-12-24T04:43:26.175Z,99111.50
2022-12-24T04:45:52.566Z,99110.88
2022-12-24T04:48:18.852Z,99119.25
2022-12-24T04:50:45.176Z,99121.66
2022-12-24T04:53:11.543Z,99127.19
2022-12-24T04:55:38.199Z,99121.19
2022-12-24T04:58:04.521Z,99122.47
2022-12-24T05:00:30.826Z,99113.16
2022-12-24T05:02:57.160Z,99107.50
2022-12-24T05:05:23.499Z,99105.69
2022-12-24T05:07:49.833Z,99115.41
2022-12-24T05:10:16.180Z,99116.78
2022-12-24T05:12:42.479Z,99123.13
2022-12-24T05:15:09.024Z,99119.13
2022-12-24T05:17:35.349Z,99117.34
2022-12-24T05:20:01.746Z,99133.03
2022-12-24T05:22:46.542Z,99124.28
2022-12-24T05:25:31.504Z,99121.91
2022-12-24T05:27:57.886Z,99132.66
2022-12-24T05:30:24.188Z,99135.44
2022-12-24T05:32:50.543Z,99136.56
2022-12-24T05:35:16.936Z,99145.34
2022-12-24T05:37:43.240Z,99140.22
2022-12-24T05:40:09.964Z,99146.88
2022-12-24T05:42:36.247Z,99141.84
2022-12-24T05:45:02.680Z,99153.84
2022-12-24T05:47:29.120Z,99160.78
2022-12-24T05:49:55.433Z,99163.19
2022-12-24T05:52:21.753Z,99166.31
2022-12-24T05:54:48.049Z,99173.53
2022-12-24T05:57:14.337Z,99177.41
2022-12-24T05:59:40.637Z,99178.22
2022-12-24T06:02:06.975Z,99183.84
2022-12-24T06:04:33.397Z,99184.34
2022-12-24T06:06:59.821Z,99180.63
2022-12-24T06:09:26.152Z,99184.22
2022-12-24T06:11:52.474Z,99190.59
2022-12-24T06:14:18.796Z,99189.63
2022-12-24T06:16:45.073Z,99192.38
2022-12-24T06:19:11.414Z,99197.66
2022-12-24T06:21:37.766Z,99191.81
2022-12-24T06:24:04.356Z,99193.47
2022-12-24T06:26:30.669Z,99200.06
2022-12-24T06:28:56.984Z,99181.81
2022-12-24T06:31:23.898Z,99197.66
2022-12-24T06:33:50.990Z,99194.78
2022-12-24T06:36:20.619Z,99190.47
2022-12-24T06:38:48.206Z,99196.31
2022-12-24T06:41:15.532Z,99200.53
2022-12-24T06:43:50.166Z,99194.31
2022-12-24T06:46:17.126Z,99199.34
2022-12-24T06:48:45.303Z,99205.47
2022-12-24T06:51:12.938Z,99194.63
2022-12-24T06:53:39.307Z,99209.44
2022-12-24T06:56:08.090Z,99203.22
2022-12-24T06:58:35.020Z,99212.34
2022-12-24T07:01:02.618Z,99205.50
2022-12-24T07:03:29.627Z,99216.75
2022-12-24T07:05:56.125Z,99209.22
2022-12-24T07:08:22.441Z,99227.34
2022-12-24T07:10:54.049Z,99213.66
2022-12-24T07:13:20.906Z,99208.50
2022-12-24T07:15:47.232Z,99205.19
2022-12-24T07:18:13.570Z,99205.50
2022-12-24T07:20:39.896Z,99224.09
2022-12-24T07:23:06.201Z,99232.84
2022-12-24T07:25:32.490Z,99240.16
2022-12-24T07:27:58.805Z,99231.75
2022-12-24T07:30:25.098Z,99229.84
2022-12-24T07:32:51.605Z,99238.72
2022-12-24T07:35:17.974Z,99234.41
2022-12-24T07:37:44.313Z,99245.69
2022-12-24T07:40:10.885Z,99247.59
2022-12-24T07:42:37.219Z,99262.47
2022-12-24T07:45:04.958Z,99242.81
2022-12-24T07:47:31.237Z,99245.69
2022-12-24T07:49:57.537Z,99257.78
2022-12-24T07:52:23.909Z,99254.31
2022-12-24T07:54:50.274Z,99259.59
2022-12-24T07:57:16.685Z,99278.16
2022-12-24T07:59:43.201Z,99271.81
2022-12-24T08:02:17.842Z,99282.09
2022-12-24T08:04:44.905Z,99284.03
2022-12-24T08:07:11.290Z,99290.03
2022-12-24T08:09:38.507Z,99297.13
2022-12-24T08:12:05.194Z,99295.69
2022-12-24T08:14:31.837Z,99298.69
2022-12-24T08:16:58.494Z,99297.59
2022-12-24T08:19:24.921Z,99295.56
2022-12-24T08:21:51.205Z,99292.31
2022-12-24T08:24:17.521Z,99297.13
2022-12-24T08:26:43.935Z,99290.97
2022-12-24T08:29:10.295Z,99297.84
2022-12-24T08:31:36.931Z,99300.34
2022-12-24T08:34:08.859Z,99314.13
2022-12-24T08:36:35.566Z,99292.28
2022-12-24T08:39:03.468Z,99304.16
2022-12-24T08:41:30.935Z,99322.16
2022-12-24T08:43:57.388Z,99317.81
2022-12-24T08:46:23.837Z,99313.63
2022-12-24T08:48:50.248Z,99326.69
2022-12-24T08:51:16.776Z,99329.72
2022-12-24T08:53:43.082Z,99337.50
2022-12-24T08:56:11.176Z,99345.19
2022-12-24T08:58:37.627Z,99340.50
2022-12-24T09:01:12.819Z,99354.53
2022-12-24T09:03:39.753Z,99360.41
2022-12-24T09:06:07.445Z,99354.16
2022-12-24T09:08:34.294Z,99351.53
2022-12-24T09:11:19.052Z,99358.09
2022-12-24T09:13:45.548Z,99366.03
2022-12-24T09:16:12.194Z,99362.91
2022-12-24T09:18:39.794Z,99363.00
2022-12-24T09:21:09.085Z,99373.22
2022-12-24T09:23:39.504Z,99371.06
2022-12-24T09:26:12.839Z,99380.16
2022-12-24T09:28:39.509Z,99378.81
2022-12-24T09:31:07.429Z,99381.22
2022-12-24T09:33:36.489Z,99386.25
2022-12-24T09:36:04.482Z,99377.00
2022-12-24T09:38:31.271Z,99391.75
2022-12-24T09:41:02.434Z,99389.38
2022-12-24T09:43:33.966Z,99400.03
2022-12-24T09:46:16.928Z,99404.91
2022-12-24T09:48:54.817Z,99407.22
2022-12-24T09:51:36.446Z,99412.94
2022-12-24T09:54:15.395Z,99415.13
2022-12-24T09:56:45.587Z,99417.41
2022-12-24T09:59:20.392Z,99422.53
2022-12-24T10:01:48.984Z,99415.59
2022-12-24T10:04:17.981Z,99417.66
2022-12-24T10:07:03.099Z,99424.59
2022-12-24T10:09:47.778Z,99432.53
2022-12-24T10:12:41.126Z,99439.38
2022-12-24T10:15:34.079Z,99434.31
2022-12-24T10:18:26.851Z,99437.56
2022-12-24T10:21:09.787Z,99440.09
2022-12-24T10:24:19.231Z,99441.03
2022-12-24T10:26:52.763Z,99442.38
2022-12-24T10:29:31.961Z,99436.97
2022-12-24T10:32:16.461Z,99440.22
2022-12-24T10:34:53.435Z,99443.56
2022-12-24T10:37:24.694Z,99433.06
2022-12-24T10:39:52.343Z,99426.56
2022-12-24T10:42:20.237Z,99430.66
2022-12-24T10:44:51.863Z,99432.06
2022-12-24T10:47:21.897Z,99433.75
2022-12-24T10:50:03.009Z,99424.59
2022-12-24T10:52:35.401Z,99433.97
2022-12-24T10:55:18.532Z,99432.75
2022-12-24T10:58:12.491Z,99441.19
2022-12-24T11:00:40.814Z,99439.34
2022-12-24T11:03:13.055Z,99436.59
2022-12-24T11:05:40.201Z,99447.66
2022-12-24T11:08:18.181Z,99438.75
2022-12-24T11:10:55.766Z,99437.13
2022-12-24T11:13:45.161Z,99448.97
2022-12-24T11:16:25.696Z,99444.66
2022-12-24T11:18:55.148Z,99449.00
2022-12-24T11:21:30.926Z,99436.88
2022-12-24T11:24:14.109Z,99440.63
2022-12-24T11:26:42.984Z,99444.13
2022-12-24T11:29:21.025Z,99442.25
2022-12-24T11:31:48.049Z,99445.88
2022-12-24T11:34:32.785Z,99445.53
2022-12-24T11:37:22.113Z,99448.81
2022-12-24T11:40:01.087Z,99438.34
2022-12-24T11:42:33.481Z,99434.16
2022-12-24T11:45:03.141Z,99428.97
2022-12-24T11:47:37.744Z,99431.09
2022-12-24T11:50:31.724Z,99424.84
2022-12-24T11:53:04.060Z,99432.22
2022-12-24T11:55:40.732Z,99433.50
2022-12-24T11:58:37.456Z,99422.59
2022-12-24T12:01:39.871Z,99432.44
2022-12-24T12:04:17.551Z,99416.63
2022-12-24T12:06:48.841Z,99423.34
2022-12-24T12:09:19.994Z,99415.84
2022-12-24T12:11:51.987Z,99416.94
2022-12-24T12:14:27.890Z,99411.50
2022-12-24T12:17:03.317Z,99426.13
2022-12-24T12:19:53.691Z,99426.34
2022-12-24T12:22:43.857Z,99425.81
2022-12-24T12:25:22.732Z,99428.56
2022-12-24T12:27:52.806Z,99431.06
2022-12-24T12:30:22.406Z,99434.56
2022-12-24T12:33:00.402Z,99441.94
2022-12-24T12:35:35.260Z,99439.97
2022-12-24T12:38:05.446Z,99443.28
2022-12-24T12:40:58.318Z,99446.97
2022-12-24T12:43:33.383Z,99447.09
2022-12-24T12:46:36.770Z,99442.91
2022-12-24T12:49:12.616Z,99446.69
2022-12-24T12:51:53.291Z,99454.03
2022-12-24T12:54:32.410Z,99443.31
2022-12-24T12:57:05.812Z,99446.78
2022-12-24T12:59:43.344Z,99450.81
2022-12-24T13:02:25.123Z,99451.50
2022-12-24T13:05:15.189Z,99458.47
2022-12-24T13:08:04.584Z,99448.28
2022-12-24T13:10:55.719Z,99453.44
2022-12-24T13:14:04.050Z,99459.06
2022-12-24T13:17:04.408Z,99450.16
2022-12-24T13:20:14.942Z,99468.66
2022-12-24T13:22:49.130Z,99471.72
2022-12-24T13:25:22.541Z,99473.41
2022-12-24T13:27:48.947Z,99459.59
2022-12-24T13:30:36.069Z,99465.16
2022-12-24T13:33:03.725Z,99471.97
2022-12-24T13:35:37.615Z,99470.31
2022-12-24T13:38:26.492Z,99482.84
2022-12-24T13:40:53.023Z,99483.91
2022-12-24T13:43:19.429Z,99479.22
2022-12-24T13:45:51.171Z,99483.34
2022-12-24T13:48:33.746Z,99481.75
2022-12-24T13:51:20.331Z,99480.38
2022-12-24T13:53:48.565Z,99469.78
2022-12-24T13:56:16.591Z,99464.75
2022-12-24T13:58:48.394Z,99470.25
2022-12-24T14:01:18.476Z,99471.47
2022-12-24T14:03:46.685Z,99481.81
2022-12-24T14:06:20.990Z,99488.50
2022-12-24T14:08:49.701Z,99482.63
2022-12-24T14:11:27.631Z,99480.13
2022-12-24T14:14:11.171Z,99490.72
2022-12-24T14:16:45.572Z,99491.09
2022-12-24T14:19:20.861Z,99495.53
2022-12-24T14:21:56.369Z,99499.88
2022-12-24T14:24:27.717Z,99496.66
2022-12-24T14:26:58.781Z,99512.66
2022-12-24T14:29:40.177Z,99501.78
2022-12-24T14:32:13.493Z,99488.97
2022-12-24T14:34:39.875Z,99495.78
2022-12-24T14:37:06.382Z,99501.78
2022-12-24T14:39:35.627Z,99500.13
2022-12-24T14:42:26.524Z,99504.84
2022-12-24T14:45:22.904Z,99503.16
2022-12-24T14:48:03.897Z,99511.09
2022-12-24T14:50:59.270Z,99511.47
2022-12-24T14:54:04.489Z,99516.78
2022-12-24T14:56:30.791Z,99513.66
2022-12-24T14:58:58.962Z,99521.16
2022-12-24T15:01:27.627Z,99527.88
2022-12-24T15:04:04.089Z,99530.03
2022-12-24T15:06:34.871Z,99518.75
2022-12-24T15:09:01.469Z,99518.88
2022-12-24T15:11:28.332Z,99527.78
2022-12-24T15:14:00.431Z,99543.50
2022-12-24T15:16:30.385Z,99545.59
2022-12-24T15:19:02.112Z,99550.03
2022-12-24T15:21:42.414Z,99560.38
2022-12-24T15:24:36.931Z,99562.66
2022-12-24T15:27:14.701Z,99566.16
2022-12-24T15:29:44.784Z,99571.22
2022-12-24T15:32:16.280Z,99577.09
2022-12-24T15:34:45.125Z,99577.72
2022-12-24T15:37:16.822Z,99578.94
2022-12-24T15:39:44.513Z,99582.03
2022-12-24T15:42:18.576Z,99579.41
2022-12-24T15:44:57.477Z,99583.88
2022-12-24T15:47:29.108Z,99592.38
2022-12-24T15:49:56.101Z,99590.84
2022-12-24T15:52:24.828Z,99590.09
2022-12-24T15:54:57.377Z,99596.50
2022-12-24T15:57:27.128Z,99599.00
2022-12-24T15:59:56.053Z,99609.44
2022-12-24T16:02:33.474Z,99599.25
2022-12-24T16:05:27.113Z,99606.69
2022-12-24T16:08:23.600Z,99606.09
2022-12-24T16:11:05.949Z,99605.38
2022-12-24T16:13:40.381Z,99605.13
2022-12-24T16:16:10.178Z,99604.53
2022-12-24T16:18:40.104Z,99604.66
2022-12-24T16:21:07.608Z,99607.03
2022-12-24T16:23:47.305Z,99613.19
2022-12-24T16:26:14.016Z,99615.00
2022-12-24T16:28:40.324Z,99605.03
2022-12-24T16:31:06.793Z,99611.50
2022-12-24T16:33:33.165Z,99609.22
2022-12-24T16:35:59.571Z,99617.16
2022-12-24T16:38:26.039Z,99611.38
2022-12-24T16:40:52.607Z,99610.66
2022-12-24T16:43:37.537Z,99617.63
2022-12-24T16:46:06.970Z,99615.22
2022-12-24T16:48:37.625Z,99611.59
2022-12-24T16:51:04.054Z,99612.81
2022-12-24T16:53:30.383Z,99612.47
2022-12-24T16:55:56.737Z,99614.25
2022-12-24T16:58:23.105Z,99609.81
2022-12-24T17:00:49.547Z,99607.53
2022-12-24T17:03:16.224Z,99595.28
2022-12-24T17:05:44.489Z,99599.34
2022-12-24T17:08:11.870Z,99607.53
2022-12-24T17:10:38.607Z,99607.53
2022-12-24T17:13:05.346Z,99616.41
2022-12-24T17:15:32.399Z,99618.09
2022-12-24T17:17:58.814Z,99618.84
2022-12-24T17:20:25.304Z,99619.41
2022-12-24T17:22:51.931Z,99618.44
2022-12-24T17:25:18.323Z,99621.66
2022-12-24T17:27:44.631Z,99618.88
2022-12-24T17:30:11.388Z,99621.75
2022-12-24T17:32:39.151Z,99619.69
2022-12-24T17:35:05.974Z,99635.63
2022-12-24T17:37:32.315Z,99627.00
2022-12-24T17:39:58.826Z,99636.13
2022-12-24T17:42:25.248Z,99635.47
2022-12-24T17:44:51.589Z,99646.97
2022-12-24T17:47:17.940Z,99654.19
2022-12-24T17:49:44.261Z,99645.09
2022-12-24T17:52:11.301Z,99640.19
2022-12-24T17:54:37.618Z,99637.66
2022-12-24T17:57:03.988Z,99633.41
2022-12-24T17:59:30.322Z,99619.00
2022-12-24T18:01:56.754Z,99625.94
2022-12-24T18:04:23.175Z,99625.72
2022-12-24T18:06:50.010Z,99633.53
2022-12-24T18:09:16.791Z,99625.72
2022-12-24T18:11:43.483Z,99620.44
2022-12-24T18:14:13.209Z,99617.59
2022-12-24T18:16:40.681Z,99624.63
2022-12-24T18:19:10.126Z,99619.38
2022-12-24T18:21:36.702Z,99620.44
2022-12-24T18:24:03.404Z,99633.41
2022-12-24T18:26:30.786Z,99635.72
2022-12-24T18:29:00.070Z,99628.38
2022-12-24T18:31:28.652Z,99619.25
2022-12-24T18:33:55.766Z,99628.13
2022-12-24T18:36:22.937Z,99626.84
2022-12-24T18:38:49.506Z,99640.25
2022-12-24T18:41:18.845Z,99656.47
2022-12-24T18:43:45.354Z,99655.97
2022-12-24T18:46:14.619Z,99658.13
2022-12-24T18:48:41.662Z,99659.47
2022-12-24T18:51:09.143Z,99662.94
2022-12-24T18:53:36.623Z,99658.88
2022-12-24T18:56:05.521Z,99665.56
2022-12-24T18:58:31.896Z,99658.28
2022-12-24T19:00:58.328Z,99662.34
2022-12-24T19:03:24.792Z,99659.84
2022-12-24T19:05:51.218Z,99664.53
2022-12-24T19:08:46.916Z,99665.25
2022-12-24T19:11:04.771Z,99664.41
2022-12-24T19:13:31.656Z,99655.38
2022-12-24T19:15:58.012Z,99656.25
2022-12-24T19:18:24.582Z,99661.31
2022-12-24T19:20:50.892Z,99660.28
2022-12-24T19:23:17.280Z,99660.28
2022-12-24T19:25:43.814Z,99663.44
2022-12-24T19:28:10.159Z,99659.97
2022-12-24T19:30:42.025Z,99672.09
2022-12-24T19:33:09.347Z,99656.34
2022-12-24T19:35:35.711Z,99660.94
2022-12-24T19:38:02.037Z,99656.13
2022-12-24T19:40:28.601Z,99656.34
2022-12-24T19:42:54.977Z,99660.81
2022-12-24T19:45:22.901Z,99654.56
2022-12-24T19:47:51.259Z,99661.97
2022-12-24T19:50:18.145Z,99666.22
2022-12-24T19:52:45.099Z,99670.97
2022-12-24T19:55:11.838Z,99664.16
2022-12-24T19:57:39.553Z,99675.09
2022-12-24T20:00:07.838Z,99672.53
2022-12-24T20:02:38.675Z,99668.13
2022-12-24T20:05:06.192Z,99666.88
2022-12-24T20:07:32.629Z,99668.19
2022-12-24T20:09:58.980Z,99674.31
2022-12-24T20:12:25.378Z,99684.25
2022-12-24T20:14:55.020Z,99680.41
2022-12-24T20:17:21.402Z,99671.66
2022-12-24T20:19:47.699Z,99666.25
2022-12-24T20:22:14.014Z,99669.09
2022-12-24T20:24:40.428Z,99675.50
2022-12-24T20:27:06.826Z,99675.84
2022-12-24T20:29:33.126Z,99687.50
2022-12-24T20:32:00.205Z,99690.22
2022-12-24T20:34:26.589Z,99682.09
2022-12-24T20:36:53.091Z,99684.13
2022-12-24T20:39:19.387Z,99687.59
2022-12-24T20:41:45.777Z,99701.50
2022-12-24T20:44:12.208Z,99700.34
2022-12-24T20:46:38.589Z,99701.72
2022-12-24T20:49:05.111Z,99698.38
2022-12-24T20:51:31.497Z,99690.78
2022-12-24T20:53:59.685Z,99713.97
2022-12-24T20:56:28.630Z,99713.03
2022-12-24T20:58:55.003Z,99716.00
2022-12-24T21:01:24.894Z,99699.78
2022-12-24T21:03:53.183Z,99700.53
2022-12-24T21:06:19.691Z,99697.50
2022-12-24T21:08:49.261Z,99701.06
2022-12-24T21:11:34.201Z,99690.41
2022-12-24T21:14:01.949Z,99692.25
2022-12-24T21:16:29.961Z,99686.41
2022-12-24T21:18:56.339Z,99684.84
2022-12-24T21:21:22.787Z,99686.97
2022-12-24T21:23:49.534Z,99680.13
2022-12-24T21:26:15.931Z,99692.81
2022-12-24T21:28:43.730Z,99679.28
2022-12-24T21:31:11.594Z,99686.88
2022-12-24T21:33:38.715Z,99677.78
2022-12-24T21:36:06.105Z,99675.13
2022-12-24T21:38:34.376Z,99663.88
2022-12-24T21:41:15.879Z,99658.78
2022-12-24T21:43:43.172Z,99651.97
2022-12-24T21:46:13.970Z,99653.06
2022-12-24T21:48:59.183Z,99644.53
2022-12-24T21:51:27.220Z,99663.56
2022-12-24T21:54:13.488Z,99656.88
2022-12-24T21:56:58.728Z,99663.47
2022-12-24T21:59:27.025Z,99669.09
2022-12-24T22:01:54.078Z,99678.38
2022-12-24T22:04:20.460Z,99673.66
2022-12-24T22:07:05.484Z,99675.00
2022-12-24T22:09:50.277Z,99688.41
2022-12-24T22:12:16.693Z,99693.56
2022-12-24T22:14:43.047Z,99699.56
2022-12-24T22:17:09.452Z,99691.19
2022-12-24T22:19:35.862Z,99698.38
2022-12-24T22:22:02.193Z,99691.59
2022-12-24T22:24:28.507Z,99695.19
2022-12-24T22:26:54.846Z,99691.66
2022-12-24T22:29:21.153Z,99691.44
2022-12-24T22:31:47.539Z,99690.66
2022-12-24T22:34:14.470Z,99690.75
2022-12-24T22:36:40.931Z,99692.66
2022-12-24T22:39:08.585Z,99702.53
2022-12-24T22:41:35.003Z,99700.56
2022-12-24T22:44:01.338Z,99697.72
2022-12-24T22:46:27.703Z,99692.78
2022-12-24T22:48:54.130Z,99690.34
2022-12-24T22:51:24.228Z,99687.31
2022-12-24T22:53:50.589Z,99689.75
2022-12-24T22:56:22.363Z,99690.88
2022-12-24T22:58:55.956Z,99695.00
2022-12-24T23:01:44.811Z,99696.97
2022-12-24T23:04:12.450Z,99690.56
2022-12-24T23:06:39.667Z,99685.22
2022-12-24T23:09:08.207Z,99697.84
2022-12-24T23:11:35.417Z,99692.31
2022-12-24T23:14:20.642Z,99679.31
2022-12-24T23:16:47.125Z,99675.81
2022-12-24T23:19:13.469Z,99669.19
2022-12-24T23:21:39.846Z,99671.41
2022-12-24T23:24:06.511Z,99660.28
2022-12-24T23:26:33.039Z,99676.84
2022-12-24T23:28:59.456Z,99674.13
2022-12-24T23:31:26.155Z,99676.50
2022-12-24T23:33:52.840Z,99682.66
2022-12-24T23:36:19.638Z,99686.19
2022-12-24T23:38:45.987Z,99679.47
2022-12-24T23:41:12.588Z,99688.22
2022-12-24T23:43:38.951Z,99674.69
2022-12-24T23:46:05.841Z,99678.22
2022-12-24T23:48:32.238Z,99676.53
2022-12-24T23:51:11.699Z,99683.47
2022-12-24T23:53:38.059Z,99678.66
2022-12-24T23:56:05.303Z,99676.31
2022-12-24T23:58:31.679Z,99672.13
